Time;durP1;ratioP1;P1;durP2;ratioP2;P2;SDS_P1;SDS_P2;PMS_P1;PMS_P2;Temp;Humidity;BMP_temperature;BMP_pressure;BME280_temperature;BME280_humidity;BME280_pressure;Samples;Min_cycle;Max_cycle;Signal;HPM_P1;HPM_P2
2021/07/29 00:02:05;;;;;;;4.15;2.88;;;;;;;;;;5089333;28;20021;-94
2021/07/29 00:04:31;;;;;;;3.42;2.25;;;;;;;;;;5087668;28;20036;-92
2021/07/29 00:06:56;;;;;;;6.28;2.60;;;;;;;;;;5088580;28;20031;-91
2021/07/29 00:09:22;;;;;;;3.70;2.40;;;;;;;;;;5104632;28;20479;-92
2021/07/29 00:11:47;;;;;;;6.78;2.40;;;;;;;;;;5105159;28;20035;-92
2021/07/29 00:14:12;;;;;;;6.90;2.53;;;;;;;;;;5168628;22;20542;-90
2021/07/29 00:16:44;;;;;;;3.47;2.40;;;;;;;;;;5110164;28;20104;-89
2021/07/29 00:19:10;;;;;;;5.72;2.90;;;;;;;;;;5116055;27;20020;-88
2021/07/29 00:21:38;;;;;;;4.65;2.33;;;;;;;;;;5129318;28;20034;-89
2021/07/29 00:24:03;;;;;;;6.30;2.72;;;;;;;;;;5128716;28;20015;-89
2021/07/29 00:26:29;;;;;;;4.93;2.63;;;;;;;;;;5127959;28;20045;-90
2021/07/29 00:28:55;;;;;;;3.88;2.38;;;;;;;;;;5127000;28;20520;-89
2021/07/29 00:31:24;;;;;;;4.60;2.63;;;;;;;;;;5126978;28;20020;-90
2021/07/29 00:33:49;;;;;;;9.02;2.92;;;;;;;;;;5108701;28;20031;-89
2021/07/29 00:36:24;;;;;;;5.15;2.80;;;;;;;;;;5109448;28;20049;-89
2021/07/29 00:38:50;;;;;;;4.32;2.53;;;;;;;;;;5129503;28;20039;-88
2021/07/29 00:41:16;;;;;;;3.65;2.63;;;;;;;;;;5129255;28;20019;-89
2021/07/29 00:43:42;;;;;;;6.07;2.78;;;;;;;;;;5128119;28;20459;-89
2021/07/29 00:46:10;;;;;;;4.43;2.40;;;;;;;;;;5113400;28;20032;-90
2021/07/29 00:48:35;;;;;;;5.72;2.65;;;;;;;;;;5127218;28;20043;-90
2021/07/29 00:51:01;;;;;;;5.53;2.25;;;;;;;;;;5125581;28;20030;-90
2021/07/29 00:53:27;;;;;;;7.95;2.63;;;;;;;;;;5125851;28;20061;-90
2021/07/29 00:55:52;;;;;;;8.27;2.90;;;;;;;;;;5126330;28;20019;-89
2021/07/29 00:58:18;;;;;;;6.28;2.75;;;;;;;;;;5128665;28;20027;-89
2021/07/29 01:00:43;;;;;;;9.13;3.00;;;;;;;;;;5107214;28;20024;-90
2021/07/29 01:03:09;;;;;;;4.05;2.67;;;;;;;;;;5108458;28;20076;-90
2021/07/29 01:05:36;;;;;;;5.95;3.10;;;;;;;;;;5129287;28;20092;-91
2021/07/29 01:08:01;;;;;;;4.03;2.55;;;;;;;;;;5130730;28;20102;-88
2021/07/29 01:10:27;;;;;;;5.55;2.90;;;;;;;;;;5107225;28;20030;-89
2021/07/29 01:12:52;;;;;;;7.93;2.70;;;;;;;;;;5125521;28;20016;-88
2021/07/29 01:15:17;;;;;;;3.72;2.78;;;;;;;;;;5106603;28;20095;-89
2021/07/29 01:17:43;;;;;;;13.57;2.53;;;;;;;;;;5124505;28;20053;-89
2021/07/29 01:20:09;;;;;;;4.95;2.45;;;;;;;;;;5124738;28;20040;-89
2021/07/29 01:22:36;;;;;;;8.77;3.00;;;;;;;;;;5125564;28;20023;-89
2021/07/29 01:25:03;;;;;;;5.97;2.72;;;;;;;;;;5125212;28;20162;-89
2021/07/29 01:27:32;;;;;;;10.52;3.05;;;;;;;;;;5125243;28;20076;-89
2021/07/29 01:29:59;;;;;;;5.28;2.47;;;;;;;;;;5106940;28;20054;-90
2021/07/29 01:32:26;;;;;;;4.70;2.67;;;;;;;;;;5125382;28;20024;-89
2021/07/29 01:34:52;;;;;;;6.63;2.40;;;;;;;;;;5108278;28;20023;-90
2021/07/29 01:37:17;;;;;;;5.03;3.10;;;;;;;;;;5125449;28;20435;-91
2021/07/29 01:39:42;;;;;;;8.00;2.72;;;;;;;;;;5107357;28;20052;-88
2021/07/29 01:42:08;;;;;;;5.78;2.83;;;;;;;;;;5105593;28;20023;-89
2021/07/29 01:44:33;;;;;;;11.07;2.78;;;;;;;;;;5125223;28;20020;-88
2021/07/29 01:46:59;;;;;;;9.02;2.90;;;;;;;;;;5107649;28;20030;-88
2021/07/29 01:49:24;;;;;;;4.32;2.47;;;;;;;;;;5125767;28;20087;-89
2021/07/29 01:51:50;;;;;;;6.93;2.85;;;;;;;;;;5125317;28;20019;-91
2021/07/29 01:54:16;;;;;;;6.28;2.78;;;;;;;;;;5106664;28;20031;-89
2021/07/29 01:56:42;;;;;;;6.53;3.63;;;;;;;;;;5125192;28;20027;-90
2021/07/29 01:59:08;;;;;;;6.00;3.20;;;;;;;;;;5125852;28;20024;-89
2021/07/29 02:01:33;;;;;;;6.50;3.15;;;;;;;;;;5125926;28;20034;-90
2021/07/29 02:03:59;;;;;;;6.55;2.78;;;;;;;;;;5106878;28;20526;-90
2021/07/29 02:06:24;;;;;;;4.70;2.85;;;;;;;;;;5123623;28;20023;-89
2021/07/29 02:08:50;;;;;;;7.10;3.30;;;;;;;;;;5106110;28;20054;-89
2021/07/29 02:11:15;;;;;;;8.25;3.03;;;;;;;;;;5106466;28;20402;-90
2021/07/29 02:13:41;;;;;;;5.43;2.25;;;;;;;;;;5125371;28;20487;-90
2021/07/29 02:16:12;;;;;;;5.97;2.72;;;;;;;;;;5127620;28;20024;-90
2021/07/29 02:18:37;;;;;;;6.72;2.78;;;;;;;;;;5113041;28;20024;-89
2021/07/29 02:21:07;;;;;;;5.25;2.80;;;;;;;;;;5126916;28;20030;-90
2021/07/29 02:23:32;;;;;;;4.78;2.30;;;;;;;;;;5128361;27;20024;-89
2021/07/29 02:25:57;;;;;;;4.50;2.47;;;;;;;;;;5107213;28;20505;-89
2021/07/29 02:28:23;;;;;;;5.03;2.40;;;;;;;;;;5124899;28;20084;-91
2021/07/29 02:30:48;;;;;;;5.90;3.00;;;;;;;;;;5119845;27;20037;-86
2021/07/29 02:33:14;;;;;;;7.13;2.80;;;;;;;;;;5111363;28;20020;-89
2021/07/29 02:35:39;;;;;;;6.10;2.45;;;;;;;;;;5111021;28;20034;-89
2021/07/29 02:38:04;;;;;;;5.13;2.78;;;;;;;;;;5110086;28;20046;-89
2021/07/29 02:40:31;;;;;;;6.28;2.33;;;;;;;;;;5107947;28;20024;-90
2021/07/29 02:42:56;;;;;;;4.25;2.88;;;;;;;;;;5130104;28;20023;-89
2021/07/29 02:45:22;;;;;;;5.45;2.30;;;;;;;;;;5109476;28;20058;-89
2021/07/29 02:47:47;;;;;;;3.97;2.20;;;;;;;;;;5125785;28;20471;-89
2021/07/29 02:50:13;;;;;;;4.47;2.10;;;;;;;;;;5107587;28;20036;-89
2021/07/29 02:52:38;;;;;;;6.70;2.38;;;;;;;;;;5108391;28;20024;-89
2021/07/29 02:55:04;;;;;;;11.82;2.13;;;;;;;;;;5125840;28;20113;-89
2021/07/29 02:57:29;;;;;;;4.38;1.85;;;;;;;;;;5105274;28;20024;-88
2021/07/29 02:59:56;;;;;;;12.80;2.30;;;;;;;;;;5106171;28;20059;-89
2021/07/29 03:02:21;;;;;;;4.18;2.08;;;;;;;;;;5124040;28;20027;-89
2021/07/29 03:04:47;;;;;;;6.53;2.35;;;;;;;;;;5123895;28;20028;-89
2021/07/29 03:07:12;;;;;;;5.93;2.22;;;;;;;;;;5124208;28;20031;-89
2021/07/29 03:09:37;;;;;;;4.18;2.08;;;;;;;;;;5109653;28;20047;-89
2021/07/29 03:12:04;;;;;;;3.15;1.80;;;;;;;;;;5110980;28;20016;-89
2021/07/29 03:14:29;;;;;;;4.68;2.50;;;;;;;;;;5128885;28;20097;-89
2021/07/29 03:16:55;;;;;;;4.03;2.10;;;;;;;;;;5112072;28;20083;-88
2021/07/29 03:19:20;;;;;;;5.97;1.80;;;;;;;;;;5111817;28;20528;-90
2021/07/29 03:21:46;;;;;;;4.28;1.98;;;;;;;;;;5111259;28;20050;-89
2021/07/29 03:24:11;;;;;;;6.38;2.50;;;;;;;;;;5127923;28;20031;-89
2021/07/29 03:26:37;;;;;;;7.72;1.92;;;;;;;;;;5111416;28;20044;-89
2021/07/29 03:29:02;;;;;;;9.00;2.28;;;;;;;;;;5128738;28;20019;-88
2021/07/29 03:31:28;;;;;;;4.05;1.95;;;;;;;;;;5127916;28;20027;-89
2021/07/29 03:33:53;;;;;;;4.28;1.90;;;;;;;;;;5126281;28;20076;-89
2021/07/29 03:36:18;;;;;;;3.03;1.77;;;;;;;;;;5128691;28;20054;-88
2021/07/29 03:38:44;;;;;;;6.22;2.03;;;;;;;;;;5129302;28;20023;-89
2021/07/29 03:41:10;;;;;;;3.28;1.55;;;;;;;;;;5109166;28;20432;-89
2021/07/29 03:43:36;;;;;;;4.10;1.80;;;;;;;;;;5125787;28;20026;-89
2021/07/29 03:46:01;;;;;;;13.02;2.13;;;;;;;;;;5127359;28;20051;-89
2021/07/29 03:48:26;;;;;;;10.35;1.80;;;;;;;;;;5127337;28;20472;-90
2021/07/29 03:50:52;;;;;;;4.18;1.83;;;;;;;;;;5108673;28;20023;-88
2021/07/29 03:53:17;;;;;;;8.23;2.45;;;;;;;;;;5109206;28;20048;-89
2021/07/29 03:55:44;;;;;;;7.63;1.60;;;;;;;;;;5125204;28;20019;-90
2021/07/29 03:58:10;;;;;;;6.28;2.13;;;;;;;;;;5107952;28;20028;-89
2021/07/29 04:00:35;;;;;;;8.05;1.85;;;;;;;;;;5127585;28;20026;-89
2021/07/29 04:03:01;;;;;;;6.10;1.83;;;;;;;;;;5114002;28;20035;-89
2021/07/29 04:05:26;;;;;;;3.58;1.90;;;;;;;;;;5109211;28;20055;-88
2021/07/29 04:07:52;;;;;;;6.30;2.45;;;;;;;;;;5108415;28;20023;-90
2021/07/29 04:10:17;;;;;;;5.20;2.25;;;;;;;;;;5107762;28;20134;-89
2021/07/29 04:12:42;;;;;;;6.30;2.25;;;;;;;;;;5108230;28;20028;-89
2021/07/29 04:15:14;;;;;;;5.78;1.90;;;;;;;;;;5110205;28;20095;-88
2021/07/29 04:17:40;;;;;;;3.95;1.80;;;;;;;;;;5128353;28;20026;-89
2021/07/29 04:20:07;;;;;;;5.28;1.80;;;;;;;;;;5113174;28;20015;-88
2021/07/29 04:22:33;;;;;;;7.57;2.33;;;;;;;;;;5108411;28;20073;-90
2021/07/29 04:24:58;;;;;;;6.30;2.00;;;;;;;;;;5133021;27;20035;-89
2021/07/29 04:27:24;;;;;;;4.18;2.03;;;;;;;;;;5109832;28;20023;-89
2021/07/29 04:29:50;;;;;;;5.30;1.90;;;;;;;;;;5109284;28;20027;-89
2021/07/29 04:32:16;;;;;;;7.43;1.90;;;;;;;;;;5133817;27;20012;-89
2021/07/29 04:34:41;;;;;;;5.75;2.03;;;;;;;;;;5109234;28;20592;-89
2021/07/29 04:37:08;;;;;;;8.60;2.08;;;;;;;;;;5107211;28;20043;-89
2021/07/29 04:39:37;;;;;;;9.27;2.30;;;;;;;;;;5125176;28;20068;-88
2021/07/29 04:42:03;;;;;;;6.25;2.05;;;;;;;;;;5112165;28;20051;-87
2021/07/29 04:44:29;;;;;;;6.57;2.55;;;;;;;;;;5132030;27;20047;-88
2021/07/29 04:46:54;;;;;;;7.38;1.90;;;;;;;;;;5127395;28;20038;-89
2021/07/29 04:49:20;;;;;;;7.70;2.00;;;;;;;;;;5109604;28;20501;-88
2021/07/29 04:51:47;;;;;;;5.30;1.83;;;;;;;;;;5128558;28;20015;-89
2021/07/29 04:54:13;;;;;;;6.40;2.05;;;;;;;;;;5126092;28;20016;-88
2021/07/29 04:56:38;;;;;;;9.68;2.20;;;;;;;;;;5107821;28;20071;-88
2021/07/29 04:59:04;;;;;;;6.38;2.20;;;;;;;;;;5108486;28;20027;-88
2021/07/29 05:01:29;;;;;;;5.78;2.22;;;;;;;;;;5125992;28;20035;-90
2021/07/29 05:03:54;;;;;;;5.38;2.30;;;;;;;;;;5126253;28;20035;-89
2021/07/29 05:06:20;;;;;;;4.38;2.10;;;;;;;;;;5108788;28;20028;-88
2021/07/29 05:08:45;;;;;;;6.32;2.03;;;;;;;;;;5109090;28;20051;-87
2021/07/29 05:11:11;;;;;;;14.13;2.40;;;;;;;;;;5127964;28;20020;-89
2021/07/29 05:13:37;;;;;;;8.18;2.22;;;;;;;;;;5126289;28;20030;-90
2021/07/29 05:16:06;;;;;;;7.05;1.98;;;;;;;;;;5107749;28;20049;-89
2021/07/29 05:18:35;;;;;;;10.50;2.30;;;;;;;;;;5106224;28;20508;-89
2021/07/29 05:21:05;;;;;;;9.70;3.13;;;;;;;;;;5119406;28;20024;-88
2021/07/29 05:23:31;;;;;;;6.22;2.20;;;;;;;;;;5097628;28;20024;-88
2021/07/29 05:25:57;;;;;;;5.90;2.08;;;;;;;;;;5117956;28;20479;-87
2021/07/29 05:28:22;;;;;;;11.75;2.22;;;;;;;;;;5102650;28;20031;-87
2021/07/29 05:30:47;;;;;;;8.48;1.83;;;;;;;;;;5115110;28;20024;-88
2021/07/29 05:33:13;;;;;;;7.60;2.33;;;;;;;;;;5097627;28;20029;-87
2021/07/29 05:35:38;;;;;;;6.93;2.15;;;;;;;;;;5097531;28;20100;-86
2021/07/29 05:38:03;;;;;;;5.32;1.90;;;;;;;;;;5119042;28;20103;-87
2021/07/29 05:40:29;;;;;;;10.57;2.42;;;;;;;;;;5104333;27;20012;-87
2021/07/29 05:42:54;;;;;;;5.65;2.15;;;;;;;;;;5104701;28;20035;-88
2021/07/29 05:45:20;;;;;;;6.47;2.00;;;;;;;;;;5099279;28;20522;-88
2021/07/29 05:47:45;;;;;;;5.20;1.98;;;;;;;;;;5097888;28;20023;-88
2021/07/29 05:50:11;;;;;;;7.53;2.30;;;;;;;;;;5097475;28;20031;-88
2021/07/29 05:52:36;;;;;;;11.25;2.25;;;;;;;;;;5115731;28;20027;-88
2021/07/29 05:55:03;;;;;;;9.50;2.10;;;;;;;;;;5122637;28;20035;-88
2021/07/29 05:57:29;;;;;;;9.25;2.60;;;;;;;;;;5102538;28;20023;-87
2021/07/29 05:59:54;;;;;;;8.73;2.38;;;;;;;;;;5115302;28;20386;-87
2021/07/29 06:02:19;;;;;;;10.57;2.30;;;;;;;;;;5115125;28;20030;-87
2021/07/29 06:04:44;;;;;;;11.73;2.30;;;;;;;;;;5097092;28;20020;-87
2021/07/29 06:07:10;;;;;;;9.15;2.45;;;;;;;;;;5115426;28;20084;-87
2021/07/29 06:09:35;;;;;;;12.05;2.80;;;;;;;;;;5096878;28;20019;-87
2021/07/29 06:12:00;;;;;;;8.65;2.15;;;;;;;;;;5115513;28;20068;-88
2021/07/29 06:14:26;;;;;;;7.20;2.10;;;;;;;;;;5097219;28;20509;-87
2021/07/29 06:16:51;;;;;;;11.65;2.47;;;;;;;;;;5115299;28;20543;-88
2021/07/29 06:19:18;;;;;;;10.40;2.85;;;;;;;;;;5096660;28;20019;-88
2021/07/29 06:21:44;;;;;;;5.13;2.10;;;;;;;;;;5114852;28;20054;-88
2021/07/29 06:24:09;;;;;;;9.70;2.53;;;;;;;;;;5115027;28;20479;-88
2021/07/29 06:26:34;;;;;;;10.73;2.25;;;;;;;;;;5097202;28;20367;-87
2021/07/29 06:29:00;;;;;;;8.55;2.55;;;;;;;;;;5096263;28;20038;-86
2021/07/29 06:31:25;;;;;;;9.43;2.40;;;;;;;;;;5115230;28;20019;-87
2021/07/29 06:33:51;;;;;;;8.32;2.40;;;;;;;;;;5124156;27;20011;-87
2021/07/29 06:36:16;;;;;;;10.93;2.20;;;;;;;;;;5120195;27;20475;-88
2021/07/29 06:38:42;;;;;;;5.40;2.13;;;;;;;;;;5097068;28;20035;-88
2021/07/29 06:41:07;;;;;;;3.05;1.75;;;;;;;;;;5109588;28;20020;-87
2021/07/29 06:43:34;;;;;;;11.63;2.58;;;;;;;;;;5103241;28;20023;-87
2021/07/29 06:46:03;;;;;;;12.48;2.70;;;;;;;;;;5119086;28;20170;-88
2021/07/29 06:48:29;;;;;;;10.25;2.15;;;;;;;;;;5119065;28;20047;-89
2021/07/29 06:50:54;;;;;;;8.23;2.30;;;;;;;;;;5120333;28;20475;-88
2021/07/29 06:53:19;;;;;;;10.40;2.40;;;;;;;;;;5103455;28;20016;-86
2021/07/29 06:55:45;;;;;;;8.60;2.20;;;;;;;;;;5131822;27;20031;-86
2021/07/29 06:58:10;;;;;;;6.10;2.15;;;;;;;;;;5123490;28;20023;-87
2021/07/29 07:00:36;;;;;;;15.48;2.70;;;;;;;;;;5125595;28;20027;-85
2021/07/29 07:03:01;;;;;;;6.82;2.42;;;;;;;;;;5122423;28;20019;-88
2021/07/29 07:05:26;;;;;;;14.10;2.67;;;;;;;;;;5101289;28;20027;-88
2021/07/29 07:07:52;;;;;;;6.43;2.10;;;;;;;;;;5119584;28;20494;-88
2021/07/29 07:10:17;;;;;;;8.63;1.98;;;;;;;;;;5101119;28;20032;-87
2021/07/29 07:12:42;;;;;;;10.32;2.38;;;;;;;;;;5118731;28;20098;-87
2021/07/29 07:15:08;;;;;;;11.43;2.45;;;;;;;;;;5100449;28;20080;-87
2021/07/29 07:17:34;;;;;;;12.27;2.20;;;;;;;;;;5118926;28;20364;-88
2021/07/29 07:20:01;;;;;;;5.57;2.20;;;;;;;;;;5103665;28;20027;-88
2021/07/29 07:22:26;;;;;;;4.82;2.10;;;;;;;;;;5128531;27;20023;-86
2021/07/29 07:24:52;;;;;;;10.23;2.47;;;;;;;;;;5102194;28;20037;-87
2021/07/29 07:27:18;;;;;;;17.88;2.35;;;;;;;;;;5100467;28;20020;-87
2021/07/29 07:29:43;;;;;;;11.88;1.70;;;;;;;;;;5123390;28;20062;-87
2021/07/29 07:32:08;;;;;;;9.20;1.98;;;;;;;;;;5112261;28;20335;-87
2021/07/29 07:34:34;;;;;;;10.98;2.17;;;;;;;;;;5120984;28;20087;-88
2021/07/29 07:36:59;;;;;;;7.72;2.90;;;;;;;;;;5118549;28;20031;-88
2021/07/29 07:39:25;;;;;;;7.50;2.03;;;;;;;;;;5118283;28;20027;-87
2021/07/29 07:41:51;;;;;;;7.93;1.85;;;;;;;;;;5119071;28;20506;-87
2021/07/29 07:44:16;;;;;;;13.73;1.80;;;;;;;;;;5118044;28;20394;-88
2021/07/29 07:46:42;;;;;;;12.95;2.03;;;;;;;;;;5117944;28;20034;-85
2021/07/29 07:49:07;;;;;;;7.50;1.98;;;;;;;;;;5118269;28;20100;-86
2021/07/29 07:51:32;;;;;;;6.63;1.98;;;;;;;;;;5100183;28;20016;-88
2021/07/29 07:53:58;;;;;;;7.25;1.67;;;;;;;;;;5116351;28;20019;-84
2021/07/29 07:56:23;;;;;;;5.28;1.75;;;;;;;;;;5103278;28;20500;-89
2021/07/29 07:58:49;;;;;;;12.73;2.30;;;;;;;;;;5118355;28;20030;-88
2021/07/29 08:01:15;;;;;;;9.45;1.73;;;;;;;;;;5098868;28;20016;-87
2021/07/29 08:03:40;;;;;;;10.90;1.80;;;;;;;;;;5117248;28;20034;-87
2021/07/29 08:06:06;;;;;;;5.30;1.45;;;;;;;;;;5100791;28;20028;-87
2021/07/29 08:08:31;;;;;;;6.40;1.70;;;;;;;;;;5100700;28;20046;-86
2021/07/29 08:10:57;;;;;;;7.20;1.38;;;;;;;;;;5100319;28;20474;-85
2021/07/29 08:13:22;;;;;;;6.60;1.48;;;;;;;;;;5118400;28;20043;-86
2021/07/29 08:15:47;;;;;;;11.48;1.77;;;;;;;;;;5118707;28;20382;-87
2021/07/29 08:18:13;;;;;;;6.68;1.73;;;;;;;;;;5117175;28;20106;-86
2021/07/29 08:20:42;;;;;;;7.93;1.65;;;;;;;;;;5115956;28;20030;-86
2021/07/29 08:23:08;;;;;;;6.32;1.48;;;;;;;;;;5117265;28;20019;-87
2021/07/29 08:25:33;;;;;;;8.55;2.25;;;;;;;;;;5117923;28;20478;-87
2021/07/29 08:27:59;;;;;;;3.58;1.10;;;;;;;;;;5119997;28;20553;-87
2021/07/29 08:30:24;;;;;;;20.42;2.20;;;;;;;;;;5102130;28;20027;-86
2021/07/29 08:32:50;;;;;;;5.50;1.33;;;;;;;;;;5102065;28;20023;-86
2021/07/29 08:35:15;;;;;;;6.53;1.73;;;;;;;;;;5098868;28;20027;-87
2021/07/29 08:37:46;;;;;;;8.32;1.65;;;;;;;;;;5098832;28;20023;-87
2021/07/29 08:40:17;;;;;;;12.13;2.83;;;;;;;;;;5098847;28;20059;-86
2021/07/29 08:42:43;;;;;;;9.38;1.83;;;;;;;;;;5117199;28;20054;-87
2021/07/29 08:45:09;;;;;;;4.30;1.35;;;;;;;;;;5116444;28;20023;-86
2021/07/29 08:47:36;;;;;;;7.25;2.05;;;;;;;;;;5098443;28;20025;-88
2021/07/29 08:50:04;;;;;;;8.93;1.55;;;;;;;;;;5112797;28;20117;-88
2021/07/29 08:52:30;;;;;;;10.45;1.73;;;;;;;;;;5100387;28;20020;-86
2021/07/29 08:54:55;;;;;;;6.88;1.42;;;;;;;;;;5117287;28;20022;-87
2021/07/29 08:57:28;;;;;;;5.97;1.40;;;;;;;;;;5098340;28;20066;-87
2021/07/29 08:59:55;;;;;;;10.00;1.75;;;;;;;;;;5100057;27;20023;-88
2021/07/29 09:02:22;;;;;;;9.10;1.73;;;;;;;;;;5128832;27;20063;-90
2021/07/29 09:05:08;;;;;;;5.88;1.73;;;;;;;;;;5104659;27;20003;-87
2021/07/29 09:07:33;;;;;;;8.65;1.48;;;;;;;;;;5116679;28;20023;-88
2021/07/29 09:09:59;;;;;;;6.63;1.45;;;;;;;;;;5109802;28;20035;-88
2021/07/29 09:12:25;;;;;;;10.65;1.55;;;;;;;;;;5118757;28;20052;-87
2021/07/29 09:14:52;;;;;;;7.70;2.13;;;;;;;;;;5118156;28;20126;-87
2021/07/29 09:17:19;;;;;;;6.30;1.85;;;;;;;;;;5099741;28;20107;-87
2021/07/29 09:19:50;;;;;;;5.28;1.63;;;;;;;;;;5099093;28;20050;-87
2021/07/29 09:22:17;;;;;;;5.07;1.80;;;;;;;;;;5098950;28;20020;-88
2021/07/29 09:25:01;;;;;;;5.30;2.00;;;;;;;;;;5098062;28;20031;-88
2021/07/29 09:27:38;;;;;;;6.30;1.63;;;;;;;;;;5098864;28;20098;-87
2021/07/29 09:30:22;;;;;;;10.93;2.20;;;;;;;;;;5116677;28;20035;-89
2021/07/29 09:33:13;;;;;;;7.03;1.88;;;;;;;;;;5116032;28;20023;-87
2021/07/29 09:35:46;;;;;;;11.32;2.30;;;;;;;;;;5097985;28;20026;-87
2021/07/29 09:38:17;;;;;;;12.65;1.73;;;;;;;;;;5097803;28;20066;-87
2021/07/29 09:40:45;;;;;;;6.05;1.73;;;;;;;;;;5115511;28;20027;-87
2021/07/29 09:43:14;;;;;;;8.02;1.70;;;;;;;;;;5116038;28;20034;-88
2021/07/29 09:45:41;;;;;;;11.20;2.17;;;;;;;;;;5115569;28;20058;-87
2021/07/29 09:48:08;;;;;;;6.13;1.35;;;;;;;;;;5115864;28;20079;-86
2021/07/29 09:50:34;;;;;;;8.70;1.70;;;;;;;;;;5115206;28;20072;-87
2021/07/29 09:53:01;;;;;;;7.05;1.50;;;;;;;;;;5117628;28;20023;-90
2021/07/29 09:55:28;;;;;;;7.47;1.40;;;;;;;;;;5125552;28;20023;-90
2021/07/29 09:57:53;;;;;;;8.90;1.80;;;;;;;;;;5124788;28;20035;-89
2021/07/29 10:00:20;;;;;;;7.90;1.65;;;;;;;;;;5126174;28;20032;-88
2021/07/29 10:02:48;;;;;;;12.23;1.73;;;;;;;;;;5110144;28;20016;-90
2021/07/29 10:05:19;;;;;;;7.80;1.63;;;;;;;;;;5112149;28;20027;-90
2021/07/29 10:07:49;;;;;;;6.85;1.45;;;;;;;;;;5125306;28;20087;-88
2021/07/29 10:10:21;;;;;;;9.68;1.88;;;;;;;;;;5127169;28;20045;-90
2021/07/29 10:12:48;;;;;;;9.35;1.67;;;;;;;;;;5108653;28;20027;-88
2021/07/29 10:15:37;;;;;;;5.40;1.90;;;;;;;;;;5108055;28;20371;-89
2021/07/29 10:18:03;;;;;;;13.55;2.33;;;;;;;;;;5110951;28;20024;-88
2021/07/29 10:20:32;;;;;;;9.75;1.88;;;;;;;;;;5131682;28;20033;-88
2021/07/29 10:23:28;;;;;;;9.73;1.83;;;;;;;;;;5129545;28;20494;-88
2021/07/29 10:25:54;;;;;;;5.63;1.40;;;;;;;;;;5098895;28;20038;-90
2021/07/29 10:28:26;;;;;;;11.40;1.90;;;;;;;;;;5110842;28;20111;-88
2021/07/29 10:31:00;;;;;;;5.63;1.50;;;;;;;;;;5129089;28;20027;-87
2021/07/29 10:33:28;;;;;;;10.20;1.70;;;;;;;;;;5130860;28;20026;-89
2021/07/29 10:35:54;;;;;;;10.02;1.83;;;;;;;;;;5111316;28;20391;-89
2021/07/29 10:38:43;;;;;;;9.82;1.75;;;;;;;;;;5129709;28;20027;-89
2021/07/29 10:41:08;;;;;;;8.73;1.50;;;;;;;;;;5116452;27;20007;-87
2021/07/29 10:43:38;;;;;;;7.53;1.98;;;;;;;;;;5138256;28;20028;-89
2021/07/29 10:46:03;;;;;;;5.45;1.38;;;;;;;;;;5136656;28;20020;-88
2021/07/29 10:48:41;;;;;;;7.00;1.67;;;;;;;;;;5130033;28;20058;-88
2021/07/29 10:51:23;;;;;;;10.88;1.70;;;;;;;;;;5130380;28;20023;-89
2021/07/29 10:53:50;;;;;;;4.60;1.60;;;;;;;;;;5112412;28;20024;-90
2021/07/29 10:56:21;;;;;;;4.57;1.75;;;;;;;;;;5136413;27;20011;-89
2021/07/29 10:58:52;;;;;;;10.43;1.80;;;;;;;;;;5130386;28;20028;-88
2021/07/29 11:01:19;;;;;;;8.32;2.00;;;;;;;;;;5130098;28;20019;-89
2021/07/29 11:03:50;;;;;;;10.63;1.67;;;;;;;;;;5129139;28;20031;-87
2021/07/29 11:06:38;;;;;;;9.30;1.58;;;;;;;;;;5130153;28;20046;-91
2021/07/29 11:09:20;;;;;;;5.68;1.92;;;;;;;;;;5131345;28;20030;-88
2021/07/29 11:11:47;;;;;;;8.25;1.88;;;;;;;;;;5113887;28;20049;-88
2021/07/29 11:14:20;;;;;;;5.90;2.03;;;;;;;;;;5113400;28;20042;-88
2021/07/29 11:16:49;;;;;;;14.82;1.60;;;;;;;;;;5132257;27;20012;-88
2021/07/29 11:19:14;;;;;;;9.30;1.90;;;;;;;;;;5134958;27;20054;-89
2021/07/29 11:21:40;;;;;;;7.95;1.70;;;;;;;;;;5131021;28;20027;-87
2021/07/29 11:24:22;;;;;;;6.50;1.70;;;;;;;;;;5112370;28;20035;-89
2021/07/29 11:26:47;;;;;;;4.15;1.23;;;;;;;;;;5129842;28;20051;-89
2021/07/29 11:29:12;;;;;;;10.27;1.70;;;;;;;;;;5130017;28;20024;-87
2021/07/29 11:31:39;;;;;;;5.88;1.77;;;;;;;;;;5110545;28;20039;-89
2021/07/29 11:34:06;;;;;;;10.77;1.98;;;;;;;;;;5104778;28;20030;-86
2021/07/29 11:36:32;;;;;;;15.68;2.88;;;;;;;;;;5124254;28;20039;-87
2021/07/29 11:39:06;;;;;;;6.60;2.05;;;;;;;;;;5120321;28;20023;-86
2021/07/29 11:41:51;;;;;;;6.18;1.70;;;;;;;;;;5118551;28;20019;-87
2021/07/29 11:44:17;;;;;;;11.85;2.00;;;;;;;;;;5118367;28;20077;-86
2021/07/29 11:46:56;;;;;;;10.55;1.75;;;;;;;;;;5117932;28;20042;-86
2021/07/29 11:49:23;;;;;;;11.63;1.80;;;;;;;;;;5103133;28;20029;-86
2021/07/29 11:52:09;;;;;;;6.70;1.90;;;;;;;;;;5117500;28;20020;-87
2021/07/29 11:54:35;;;;;;;7.78;1.85;;;;;;;;;;5117398;28;20019;-86
2021/07/29 11:57:01;;;;;;;4.60;1.73;;;;;;;;;;5117330;28;20079;-87
2021/07/29 11:59:33;;;;;;;6.63;1.75;;;;;;;;;;5118115;28;20024;-86
2021/07/29 12:01:59;;;;;;;4.47;1.60;;;;;;;;;;5117442;28;20022;-87
2021/07/29 12:04:26;;;;;;;7.85;1.52;;;;;;;;;;5117426;28;20031;-86
2021/07/29 12:06:51;;;;;;;8.43;1.63;;;;;;;;;;5116785;28;20050;-87
2021/07/29 12:09:17;;;;;;;6.72;1.88;;;;;;;;;;5118030;28;20015;-89
2021/07/29 12:11:43;;;;;;;8.05;1.95;;;;;;;;;;5099665;28;20022;-85
2021/07/29 12:14:12;;;;;;;4.80;1.45;;;;;;;;;;5116416;28;20039;-88
2021/07/29 12:16:46;;;;;;;7.18;1.75;;;;;;;;;;5116708;28;20019;-86
2021/07/29 12:19:12;;;;;;;9.52;2.00;;;;;;;;;;5122804;28;20050;-86
2021/07/29 12:21:37;;;;;;;4.75;1.77;;;;;;;;;;5117490;28;20046;-89
2021/07/29 12:24:03;;;;;;;11.15;2.38;;;;;;;;;;5127967;28;20031;-87
2021/07/29 12:26:28;;;;;;;9.38;2.20;;;;;;;;;;5102231;28;20104;-87
2021/07/29 12:28:53;;;;;;;3.45;1.33;;;;;;;;;;5101263;28;20034;-86
2021/07/29 12:31:27;;;;;;;9.68;1.70;;;;;;;;;;5117704;28;20020;-87
2021/07/29 12:34:04;;;;;;;8.93;2.05;;;;;;;;;;5120384;28;20127;-86
2021/07/29 12:36:46;;;;;;;15.05;2.35;;;;;;;;;;5117873;28;20023;-86
2021/07/29 12:39:14;;;;;;;6.25;2.08;;;;;;;;;;5117822;28;20504;-86
2021/07/29 12:41:41;;;;;;;13.68;2.30;;;;;;;;;;5116634;28;20110;-86
2021/07/29 12:44:10;;;;;;;5.20;1.55;;;;;;;;;;5117395;28;20027;-85
2021/07/29 12:46:38;;;;;;;6.60;2.00;;;;;;;;;;5118403;28;20414;-85
2021/07/29 12:49:03;;;;;;;5.80;2.10;;;;;;;;;;5100016;28;20023;-84
2021/07/29 12:51:44;;;;;;;7.80;2.10;;;;;;;;;;5098360;28;20432;-85
2021/07/29 12:54:11;;;;;;;8.90;2.20;;;;;;;;;;5098538;28;20023;-87
2021/07/29 12:56:38;;;;;;;5.22;2.10;;;;;;;;;;5098426;28;20068;-85
2021/07/29 12:59:04;;;;;;;8.30;2.00;;;;;;;;;;5099416;28;20023;-86
2021/07/29 13:01:29;;;;;;;9.68;2.08;;;;;;;;;;5117237;28;20058;-86
2021/07/29 13:03:55;;;;;;;42.03;4.72;;;;;;;;;;5104650;28;20023;-86
2021/07/29 13:06:21;;;;;;;8.98;2.33;;;;;;;;;;5106026;28;20031;-86
2021/07/29 13:08:47;;;;;;;10.07;2.17;;;;;;;;;;5100200;28;20027;-86
2021/07/29 13:11:13;;;;;;;8.20;2.03;;;;;;;;;;5120730;28;20040;-86
2021/07/29 13:13:42;;;;;;;5.80;2.03;;;;;;;;;;5117732;28;20069;-85
2021/07/29 13:16:08;;;;;;;10.57;2.80;;;;;;;;;;5097978;28;20054;-86
2021/07/29 13:18:34;;;;;;;6.25;1.77;;;;;;;;;;5116267;28;20023;-87
2021/07/29 13:21:01;;;;;;;9.43;1.88;;;;;;;;;;5116515;28;20031;-87
2021/07/29 13:23:27;;;;;;;6.82;1.88;;;;;;;;;;5116057;28;20387;-87
2021/07/29 13:25:53;;;;;;;9.10;2.30;;;;;;;;;;5115208;28;20023;-85
2021/07/29 13:28:20;;;;;;;7.22;1.98;;;;;;;;;;5117808;28;20028;-86
2021/07/29 13:30:47;;;;;;;14.70;2.88;;;;;;;;;;5128569;27;20091;-86
2021/07/29 13:33:13;;;;;;;10.95;1.85;;;;;;;;;;5119274;28;20069;-88
2021/07/29 13:35:39;;;;;;;6.50;1.80;;;;;;;;;;5118379;28;20394;-86
2021/07/29 13:38:04;;;;;;;9.80;2.22;;;;;;;;;;5101068;28;20023;-86
2021/07/29 13:40:31;;;;;;;5.50;1.83;;;;;;;;;;5104703;28;20023;-87
2021/07/29 13:42:57;;;;;;;6.10;1.20;;;;;;;;;;5099194;28;20027;-88
2021/07/29 13:45:23;;;;;;;4.18;2.00;;;;;;;;;;5098980;28;20484;-87
2021/07/29 13:47:50;;;;;;;4.72;1.40;;;;;;;;;;5099279;28;20057;-87
2021/07/29 13:50:17;;;;;;;6.85;1.08;;;;;;;;;;5100344;28;20024;-87
2021/07/29 13:52:43;;;;;;;4.75;1.50;;;;;;;;;;5116271;28;20100;-87
2021/07/29 13:55:09;;;;;;;8.32;1.40;;;;;;;;;;5116320;28;20028;-87
2021/07/29 13:57:34;;;;;;;10.32;1.63;;;;;;;;;;5127585;27;20079;-87
2021/07/29 14:00:00;;;;;;;27.58;2.33;;;;;;;;;;5134259;28;20020;-87
2021/07/29 14:02:28;;;;;;;3.65;1.02;;;;;;;;;;5103161;28;20030;-87
2021/07/29 14:04:53;;;;;;;5.32;1.35;;;;;;;;;;5118915;28;20478;-86
2021/07/29 14:07:19;;;;;;;6.50;1.02;;;;;;;;;;5118503;28;20034;-87
2021/07/29 14:09:46;;;;;;;3.10;1.38;;;;;;;;;;5118364;28;20053;-88
2021/07/29 14:12:12;;;;;;;6.40;1.33;;;;;;;;;;5098434;28;20024;-87
2021/07/29 14:14:38;;;;;;;3.75;1.40;;;;;;;;;;5115547;28;20035;-87
2021/07/29 14:17:12;;;;;;;7.32;1.02;;;;;;;;;;5098052;28;20163;-87
2021/07/29 14:24:37;;;;;;;7.00;1.77;;;;;;;;;;5114811;28;20031;-87
2021/07/29 14:27:02;;;;;;;5.93;1.30;;;;;;;;;;5115016;28;20036;-87
2021/07/29 14:29:28;;;;;;;5.97;1.80;;;;;;;;;;5114895;28;20539;-87
2021/07/29 14:31:53;;;;;;;7.43;2.05;;;;;;;;;;5096612;28;20110;-86
2021/07/29 14:34:18;;;;;;;11.27;1.85;;;;;;;;;;5114574;28;20027;-86
2021/07/29 14:36:44;;;;;;;4.35;1.60;;;;;;;;;;5114664;28;20478;-87
2021/07/29 14:39:09;;;;;;;6.07;1.67;;;;;;;;;;5114396;28;20043;-87
2021/07/29 14:41:34;;;;;;;8.05;1.85;;;;;;;;;;5114263;28;20070;-87
2021/07/29 14:44:00;;;;;;;7.15;1.85;;;;;;;;;;5096433;28;20074;-88
2021/07/29 14:49:21;;;;;;;6.70;1.88;;;;;;;;;;5117564;28;20024;-87